createdAt,value
2022-10-28T00:01:23.003Z,12.20
2022-10-28T00:03:52.627Z,12.30
2022-10-28T00:06:28.637Z,12.30
2022-10-28T00:08:56.356Z,12.30
2022-10-28T00:11:26.305Z,12.30
2022-10-28T00:13:55.867Z,12.20
2022-10-28T00:16:25.315Z,12.30
2022-10-28T00:18:54.210Z,12.30
2022-10-28T00:21:32.955Z,12.30
2022-10-28T00:23:59.886Z,12.30
2022-10-28T00:26:29.857Z,12.30
2022-10-28T00:29:01.626Z,12.20
2022-10-28T00:31:30.361Z,12.10
2022-10-28T00:33:59.276Z,12.20
2022-10-28T00:36:28.525Z,12.20
2022-10-28T00:38:56.757Z,12.10
2022-10-28T00:41:37.881Z,12.10
2022-10-28T00:44:47.931Z,12.10
2022-10-28T00:47:28.003Z,12.00
2022-10-28T00:50:23.896Z,12.00
2022-10-28T00:52:58.445Z,12.00
2022-10-28T00:55:25.813Z,12.00
2022-10-28T00:57:57.735Z,12.00
2022-10-28T01:00:25.543Z,12.00
2022-10-28T01:02:52.341Z,12.00
2022-10-28T01:05:26.101Z,11.90
2022-10-28T01:07:57.318Z,11.80
2022-10-28T01:10:47.829Z,11.90
2022-10-28T01:13:24.584Z,11.90
2022-10-28T01:16:09.799Z,11.90
2022-10-28T01:18:49.148Z,11.90
2022-10-28T01:21:34.622Z,11.90
2022-10-28T01:24:27.414Z,12.00
2022-10-28T01:27:17.434Z,12.00
2022-10-28T01:30:07.554Z,11.90
2022-10-28T01:32:48.851Z,11.90
2022-10-28T01:35:24.774Z,11.80
2022-10-28T01:38:15.931Z,11.70
2022-10-28T01:40:55.110Z,11.70
2022-10-28T01:43:34.253Z,11.60
2022-10-28T01:46:07.756Z,11.60
2022-10-28T01:48:55.904Z,11.60
2022-10-28T01:51:34.467Z,11.60
2022-10-28T01:54:05.780Z,11.70
2022-10-28T01:56:37.228Z,11.70
2022-10-28T01:59:07.697Z,11.70
2022-10-28T02:01:36.276Z,11.70
2022-10-28T02:04:03.464Z,11.70
2022-10-28T02:06:33.128Z,11.70
2022-10-28T02:09:28.486Z,11.70
2022-10-28T02:12:20.924Z,11.70
2022-10-28T02:15:19.979Z,11.70
2022-10-28T02:18:08.272Z,11.70
2022-10-28T02:20:42.200Z,11.80
2022-10-28T02:23:14.809Z,11.90
2022-10-28T02:25:59.239Z,11.80
2022-10-28T02:28:38.908Z,11.80
2022-10-28T02:31:18.711Z,11.70
2022-10-28T02:33:51.236Z,11.60
2022-10-28T02:36:22.266Z,11.60
2022-10-28T02:38:57.820Z,11.60
2022-10-28T02:41:35.880Z,11.70
2022-10-28T02:44:08.456Z,11.70
2022-10-28T02:46:37.083Z,11.60
2022-10-28T02:49:10.380Z,11.60
2022-10-28T02:51:55.959Z,11.60
2022-10-28T02:54:34.571Z,11.70
2022-10-28T02:57:21.387Z,11.60
2022-10-28T03:00:05.169Z,11.60
2022-10-28T03:02:32.489Z,11.50
2022-10-28T03:04:59.228Z,11.50
2022-10-28T03:07:25.939Z,11.40
2022-10-28T03:09:52.617Z,11.50
2022-10-28T03:12:19.389Z,11.40
2022-10-28T03:14:46.081Z,11.20
2022-10-28T03:17:12.929Z,11.20
2022-10-28T03:19:39.622Z,11.10
2022-10-28T03:22:06.396Z,11.10
2022-10-28T03:24:33.083Z,11.00
2022-10-28T03:26:59.993Z,11.10
2022-10-28T03:29:26.687Z,11.00
2022-10-28T03:31:53.407Z,11.00
2022-10-28T03:34:20.162Z,10.90
2022-10-28T03:36:46.996Z,10.90
2022-10-28T03:39:13.681Z,11.00
2022-10-28T03:41:40.452Z,11.00
2022-10-28T03:44:07.189Z,11.00
2022-10-28T03:46:35.986Z,11.10
2022-10-28T03:49:03.784Z,11.00
2022-10-28T03:51:30.515Z,11.00
2022-10-28T03:53:57.234Z,11.00
2022-10-28T03:56:23.990Z,11.00
2022-10-28T04:01:22.708Z,11.10
2022-10-28T04:03:49.490Z,11.00
2022-10-28T04:06:16.819Z,11.10
2022-10-28T04:08:43.564Z,11.10
2022-10-28T04:11:10.289Z,11.20
2022-10-28T04:13:37.033Z,11.20
2022-10-28T04:16:04.087Z,11.20
2022-10-28T04:18:30.853Z,11.20
2022-10-28T04:20:57.708Z,11.10
2022-10-28T04:23:24.468Z,11.20
2022-10-28T04:25:54.990Z,11.20
2022-10-28T04:28:24.174Z,11.30
2022-10-28T04:30:50.972Z,11.40
2022-10-28T04:33:17.756Z,11.30
2022-10-28T04:35:45.170Z,11.30
2022-10-28T04:38:13.964Z,11.20
2022-10-28T04:40:40.741Z,11.30
2022-10-28T04:43:09.845Z,11.20
2022-10-28T04:45:37.602Z,11.10
2022-10-28T04:48:04.576Z,11.10
2022-10-28T04:50:31.289Z,11.00
2022-10-28T04:52:57.978Z,10.90
2022-10-28T04:55:24.702Z,10.90
2022-10-28T04:57:59.804Z,11.00
2022-10-28T05:00:27.855Z,11.00
2022-10-28T05:02:55.312Z,10.90
2022-10-28T05:05:22.873Z,10.90
2022-10-28T05:07:49.613Z,10.90
2022-10-28T05:10:18.099Z,10.90
2022-10-28T05:12:47.887Z,10.90
2022-10-28T05:15:15.587Z,11.00
2022-10-28T05:17:47.056Z,11.00
2022-10-28T05:20:16.337Z,11.00
2022-10-28T05:22:52.631Z,10.90
2022-10-28T05:25:20.271Z,10.90
2022-10-28T05:27:47.341Z,10.90
2022-10-28T05:30:14.764Z,10.90
2022-10-28T05:32:41.952Z,11.00
2022-10-28T05:35:09.472Z,11.00
2022-10-28T05:37:36.706Z,11.10
2022-10-28T05:40:04.399Z,11.00
2022-10-28T05:42:31.094Z,11.00
2022-10-28T05:44:57.796Z,11.00
2022-10-28T05:47:24.534Z,11.10
2022-10-28T05:49:51.295Z,11.10
2022-10-28T05:52:18.017Z,11.00
2022-10-28T05:54:44.748Z,11.00
2022-10-28T05:57:11.509Z,11.00
2022-10-28T05:59:38.267Z,11.00
2022-10-28T06:02:04.984Z,11.10
2022-10-28T06:04:32.958Z,11.00
2022-10-28T06:06:59.710Z,11.10
2022-10-28T06:09:28.803Z,11.20
2022-10-28T06:11:54.023Z,11.20
2022-10-28T06:14:20.841Z,11.40
2022-10-28T06:16:47.579Z,11.40
2022-10-28T06:19:14.356Z,11.50
2022-10-28T06:21:41.150Z,11.50
2022-10-28T06:24:12.306Z,11.60
2022-10-28T06:26:39.370Z,11.70
2022-10-28T06:29:09.078Z,11.80
2022-10-28T06:31:42.943Z,11.90
2022-10-28T06:34:10.327Z,11.90
2022-10-28T06:36:37.959Z,12.00
2022-10-28T06:39:05.200Z,12.10
2022-10-28T06:41:32.047Z,12.00
2022-10-28T06:43:59.141Z,11.90
2022-10-28T06:46:26.241Z,12.00
2022-10-28T06:48:55.224Z,11.90
2022-10-28T06:51:22.993Z,11.90
2022-10-28T06:53:52.974Z,12.10
2022-10-28T06:56:20.142Z,12.20
2022-10-28T06:58:51.345Z,12.30
2022-10-28T07:01:19.003Z,12.30
2022-10-28T07:03:46.206Z,12.40
2022-10-28T07:08:41.098Z,12.70
2022-10-28T07:11:08.094Z,12.90
2022-10-28T07:13:34.814Z,13.00
2022-10-28T07:16:01.962Z,13.10
2022-10-28T07:18:29.978Z,13.10
2022-10-28T07:21:00.970Z,13.20
2022-10-28T07:23:28.322Z,13.30
2022-10-28T07:25:56.377Z,13.40
2022-10-28T07:28:24.937Z,13.50
2022-10-28T07:30:52.047Z,13.60
2022-10-28T07:33:19.229Z,13.60
2022-10-28T07:35:46.018Z,13.60
2022-10-28T07:38:12.740Z,13.60
2022-10-28T07:40:39.559Z,13.80
2022-10-28T07:43:06.428Z,13.90
2022-10-28T07:45:35.156Z,14.00
2022-10-28T07:48:02.304Z,14.10
2022-10-28T07:50:29.246Z,14.20
2022-10-28T07:52:56.348Z,14.30
2022-10-28T07:55:23.494Z,14.40
2022-10-28T07:57:50.158Z,14.50
2022-10-28T08:00:17.084Z,14.50
2022-10-28T08:02:43.892Z,14.60
2022-10-28T08:05:10.734Z,14.80
2022-10-28T08:07:38.813Z,15.00
2022-10-28T08:10:06.841Z,15.20
2022-10-28T08:12:33.817Z,15.30
2022-10-28T08:15:00.691Z,15.50
2022-10-28T08:17:27.415Z,15.50
2022-10-28T08:19:54.188Z,15.40
2022-10-28T08:22:20.970Z,15.50
2022-10-28T08:24:47.807Z,15.60
2022-10-28T08:27:14.588Z,15.60
2022-10-28T08:29:41.314Z,15.50
2022-10-28T08:32:09.256Z,15.60
2022-10-28T08:34:39.212Z,15.50
2022-10-28T08:37:09.237Z,15.40
2022-10-28T08:39:36.075Z,15.40
2022-10-28T08:42:08.500Z,15.60
2022-10-28T08:44:58.500Z,15.80
2022-10-28T08:47:47.726Z,15.90
2022-10-28T08:50:18.349Z,16.00
2022-10-28T08:52:54.718Z,16.10
2022-10-28T08:55:35.335Z,16.30
2022-10-28T08:58:20.883Z,16.40
2022-10-28T09:00:53.129Z,16.60
2022-10-28T09:03:24.318Z,16.80
2022-10-28T09:06:01.470Z,16.90
2022-10-28T09:08:31.550Z,17.20
2022-10-28T09:11:14.104Z,17.20
2022-10-28T09:13:43.530Z,17.20
2022-10-28T09:16:16.413Z,17.30
2022-10-28T09:18:45.960Z,17.50
2022-10-28T09:21:24.812Z,17.40
2022-10-28T09:23:59.409Z,17.60
2022-10-28T09:26:55.797Z,17.70
2022-10-28T09:29:32.098Z,17.80
2022-10-28T09:32:24.790Z,17.80
2022-10-28T09:35:01.402Z,17.90
2022-10-28T09:37:36.470Z,18.20
2022-10-28T09:40:25.948Z,18.40
2022-10-28T09:43:22.734Z,18.50
2022-10-28T09:45:53.268Z,18.50
2022-10-28T09:48:28.640Z,18.60
2022-10-28T09:50:58.489Z,18.80
2022-10-28T09:53:41.949Z,18.70
2022-10-28T09:56:09.700Z,18.50
2022-10-28T09:58:45.623Z,18.60
2022-10-28T10:01:13.205Z,18.80
2022-10-28T10:03:41.788Z,18.90
2022-10-28T10:06:15.580Z,19.00
2022-10-28T10:08:42.742Z,18.90
2022-10-28T10:11:26.186Z,18.90
2022-10-28T10:13:53.829Z,18.90
2022-10-28T10:16:42.660Z,18.80
2022-10-28T10:19:11.229Z,18.90
2022-10-28T10:21:45.586Z,19.00
2022-10-28T10:24:32.933Z,19.20
2022-10-28T10:27:14.480Z,19.30
2022-10-28T10:29:46.130Z,19.40
2022-10-28T10:32:18.223Z,19.50
2022-10-28T10:34:50.223Z,19.50
2022-10-28T10:37:20.685Z,19.50
2022-10-28T10:40:01.885Z,19.50
2022-10-28T10:42:28.629Z,19.40
2022-10-28T10:45:02.435Z,19.30
2022-10-28T10:47:29.708Z,19.20
2022-10-28T10:50:18.997Z,19.30
2022-10-28T10:52:55.563Z,19.50
2022-10-28T10:55:31.367Z,19.60
2022-10-28T10:57:58.668Z,19.60
2022-10-28T11:00:31.621Z,19.80
2022-10-28T11:02:59.965Z,19.90
2022-10-28T11:05:35.762Z,20.00
2022-10-28T11:08:06.654Z,20.20
2022-10-28T11:10:35.325Z,20.20
2022-10-28T11:13:25.071Z,20.30
2022-10-28T11:16:02.951Z,20.30
2022-10-28T11:18:41.094Z,19.90
2022-10-28T11:21:27.603Z,20.00
2022-10-28T11:24:08.438Z,20.00
2022-10-28T11:26:42.303Z,20.00
2022-10-28T11:29:15.653Z,20.20
2022-10-28T11:32:14.408Z,20.30
2022-10-28T11:35:10.490Z,20.40
2022-10-28T11:38:10.833Z,20.40
2022-10-28T11:40:56.986Z,20.50
2022-10-28T11:43:54.595Z,20.50
2022-10-28T11:47:04.118Z,20.50
2022-10-28T11:49:32.026Z,20.50
2022-10-28T11:52:44.266Z,20.30
2022-10-28T11:55:38.075Z,20.20
2022-10-28T11:58:32.117Z,20.10
2022-10-28T12:01:13.948Z,20.10
2022-10-28T12:03:52.605Z,20.00
2022-10-28T12:06:50.936Z,20.00
2022-10-28T12:09:29.188Z,19.90
2022-10-28T12:12:02.214Z,19.80
2022-10-28T12:14:34.592Z,19.70
2022-10-28T12:17:28.875Z,19.60
2022-10-28T12:20:02.726Z,19.70
2022-10-28T12:22:36.311Z,19.50
2022-10-28T12:25:09.928Z,19.60
2022-10-28T12:27:40.900Z,19.70
2022-10-28T12:30:28.619Z,19.70
2022-10-28T12:33:00.075Z,19.80
2022-10-28T12:35:40.288Z,19.90
2022-10-28T12:38:15.812Z,20.00
2022-10-28T12:41:08.866Z,20.10
2022-10-28T12:43:46.617Z,20.30
2022-10-28T12:49:46.747Z,20.50
2022-10-28T12:52:36.792Z,20.60
2022-10-28T12:57:52.005Z,20.60
2022-10-28T13:00:24.605Z,20.70
2022-10-28T13:03:07.960Z,20.80
2022-10-28T13:06:24.987Z,20.90
2022-10-28T13:09:09.077Z,20.80
2022-10-28T13:11:38.820Z,20.80
2022-10-28T13:14:15.595Z,20.80
2022-10-28T13:16:57.546Z,20.70
2022-10-28T13:19:48.018Z,20.70
2022-10-28T13:22:21.141Z,20.70
2022-10-28T13:25:25.996Z,20.70
2022-10-28T13:27:58.182Z,20.70
2022-10-28T13:30:26.720Z,20.80
2022-10-28T13:33:08.560Z,20.70
2022-10-28T13:35:36.924Z,20.70
2022-10-28T13:38:11.197Z,20.70
2022-10-28T13:40:40.866Z,20.70
2022-10-28T13:43:19.037Z,20.90
2022-10-28T13:45:52.211Z,20.80
2022-10-28T13:48:43.864Z,20.70
2022-10-28T13:51:10.526Z,20.70
2022-10-28T13:53:45.015Z,20.70
2022-10-28T13:56:25.415Z,20.70
2022-10-28T13:58:56.552Z,20.70
2022-10-28T14:01:35.571Z,20.60
2022-10-28T14:04:04.181Z,20.60
2022-10-28T14:06:33.525Z,20.60
2022-10-28T14:09:00.838Z,20.60
2022-10-28T14:11:29.266Z,20.70
2022-10-28T14:14:01.114Z,20.60
2022-10-28T14:16:39.276Z,20.60
2022-10-28T14:19:09.023Z,20.60
2022-10-28T14:22:11.022Z,20.60
2022-10-28T14:24:42.953Z,20.60
2022-10-28T14:27:11.527Z,20.70
2022-10-28T14:29:45.913Z,20.60
2022-10-28T14:32:31.273Z,20.60
2022-10-28T14:35:14.584Z,20.70
2022-10-28T14:37:59.748Z,20.70
2022-10-28T14:40:47.159Z,20.70
2022-10-28T14:43:41.866Z,20.60
2022-10-28T14:46:29.203Z,20.60
2022-10-28T14:48:58.087Z,20.60
2022-10-28T14:51:27.922Z,20.60
2022-10-28T14:53:58.860Z,20.50
2022-10-28T14:56:28.458Z,20.50
2022-10-28T14:59:17.344Z,20.60
2022-10-28T15:01:54.186Z,20.50
2022-10-28T15:04:22.450Z,20.40
2022-10-28T15:06:51.597Z,20.40
2022-10-28T15:09:32.989Z,20.40
2022-10-28T15:12:03.089Z,20.40
2022-10-28T15:14:41.888Z,20.30
2022-10-28T15:17:19.400Z,20.30
2022-10-28T15:19:51.601Z,20.30
2022-10-28T15:22:25.403Z,20.20
2022-10-28T15:25:04.930Z,20.20
2022-10-28T15:27:34.921Z,20.10
2022-10-28T15:30:03.122Z,20.10
2022-10-28T15:32:35.164Z,20.00
2022-10-28T15:35:26.901Z,20.00
2022-10-28T15:37:54.845Z,20.00
2022-10-28T15:40:33.343Z,20.00
2022-10-28T15:43:05.067Z,20.00
2022-10-28T15:45:39.670Z,19.90
2022-10-28T15:48:14.451Z,19.90
2022-10-28T15:50:41.548Z,19.90
2022-10-28T15:53:10.993Z,19.80
2022-10-28T15:56:06.831Z,19.80
2022-10-28T15:58:39.393Z,19.70
2022-10-28T16:01:28.295Z,19.60
2022-10-28T16:03:55.252Z,19.50
2022-10-28T16:06:26.931Z,19.50
2022-10-28T16:09:04.115Z,19.40
2022-10-28T16:11:32.172Z,19.30
2022-10-28T16:14:00.780Z,19.20
2022-10-28T16:16:30.011Z,19.20
2022-10-28T16:19:10.542Z,19.10
2022-10-28T16:21:38.424Z,19.10
2022-10-28T16:24:05.413Z,19.00
2022-10-28T16:26:33.362Z,18.90
2022-10-28T16:29:00.135Z,18.90
2022-10-28T16:31:30.141Z,18.90
2022-10-28T16:33:58.671Z,18.80
2022-10-28T16:36:28.058Z,18.80
2022-10-28T16:38:54.987Z,18.70
2022-10-28T16:41:22.188Z,18.60
2022-10-28T16:43:48.854Z,18.50
2022-10-28T16:46:15.601Z,18.30
2022-10-28T16:48:42.374Z,18.30
2022-10-28T16:51:16.498Z,18.30
2022-10-28T16:53:47.058Z,18.30
2022-10-28T16:56:17.739Z,18.30
2022-10-28T16:58:44.647Z,18.30
2022-10-28T17:01:12.030Z,18.20
2022-10-28T17:03:38.888Z,18.20
2022-10-28T17:06:05.857Z,18.20
2022-10-28T17:09:00.608Z,18.20
2022-10-28T17:11:19.591Z,18.20
2022-10-28T17:13:46.418Z,18.10
2022-10-28T17:16:13.252Z,18.10
2022-10-28T17:18:42.504Z,18.10
2022-10-28T17:21:09.639Z,18.10
2022-10-28T17:23:36.427Z,18.00
2022-10-28T17:26:03.269Z,18.10
2022-10-28T17:28:30.049Z,18.10
2022-10-28T17:31:07.843Z,18.00
2022-10-28T17:33:35.232Z,17.90
2022-10-28T17:36:07.860Z,17.90
2022-10-28T17:38:34.875Z,17.90
2022-10-28T17:41:01.634Z,17.90
2022-10-28T17:43:28.414Z,17.80
2022-10-28T17:46:04.379Z,17.70
2022-10-28T17:48:31.120Z,17.70
2022-10-28T17:50:57.889Z,17.70
2022-10-28T17:53:24.626Z,17.80
2022-10-28T17:55:58.281Z,17.80
2022-10-28T17:58:25.342Z,17.70
2022-10-28T18:01:06.556Z,17.40
2022-10-28T18:03:38.250Z,17.30
2022-10-28T18:06:07.737Z,17.30
2022-10-28T18:08:37.457Z,17.30
2022-10-28T18:11:05.794Z,17.30
2022-10-28T18:13:34.809Z,17.30
2022-10-28T18:16:09.720Z,17.30
2022-10-28T18:18:41.105Z,17.20
2022-10-28T18:21:13.567Z,17.10
2022-10-28T18:23:41.164Z,17.10
2022-10-28T18:26:11.780Z,17.00
2022-10-28T18:28:39.269Z,16.90
2022-10-28T18:31:10.055Z,16.90
2022-10-28T18:33:36.870Z,16.80
2022-10-28T18:36:06.904Z,16.70
2022-10-28T18:38:34.066Z,16.70
2022-10-28T18:41:00.800Z,16.60
2022-10-28T18:43:27.920Z,16.60
2022-10-28T18:45:55.105Z,16.60
2022-10-28T18:48:21.782Z,16.60
2022-10-28T18:50:56.474Z,16.50
2022-10-28T18:53:23.296Z,16.50
2022-10-28T18:55:50.018Z,16.50
2022-10-28T18:58:17.323Z,16.50
2022-10-28T19:00:44.022Z,16.50
2022-10-28T19:03:22.266Z,16.50
2022-10-28T19:05:49.540Z,16.50
2022-10-28T19:08:16.234Z,16.40
2022-10-28T19:10:42.994Z,16.40
2022-10-28T19:13:09.763Z,16.30
2022-10-28T19:15:42.013Z,16.30
2022-10-28T19:18:08.768Z,16.20
2022-10-28T19:20:35.525Z,16.10
2022-10-28T19:23:02.517Z,16.00
2022-10-28T19:25:29.313Z,16.00
2022-10-28T19:27:57.665Z,16.00
2022-10-28T19:30:24.454Z,16.00
2022-10-28T19:32:51.235Z,16.00
2022-10-28T19:35:18.110Z,15.90
2022-10-28T19:37:44.844Z,15.90
2022-10-28T19:40:11.677Z,15.80
2022-10-28T19:42:39.645Z,15.80
2022-10-28T19:45:07.072Z,15.80
2022-10-28T19:47:33.755Z,15.90
2022-10-28T19:50:00.454Z,15.80
2022-10-28T19:52:27.183Z,15.70
2022-10-28T19:54:53.891Z,15.70
2022-10-28T19:57:20.573Z,15.70
2022-10-28T19:59:47.307Z,15.70
2022-10-28T20:02:14.103Z,15.60
2022-10-28T20:04:40.839Z,15.70
2022-10-28T20:07:07.561Z,15.80
2022-10-28T20:09:34.267Z,15.70
2022-10-28T20:12:01.883Z,15.70
2022-10-28T20:14:29.175Z,15.70
2022-10-28T20:16:55.963Z,15.70
2022-10-28T20:19:22.711Z,15.80
2022-10-28T20:21:50.787Z,15.70
2022-10-28T20:24:17.587Z,15.70
2022-10-28T20:26:44.287Z,15.70
2022-10-28T20:29:10.965Z,15.70
2022-10-28T20:31:39.064Z,15.80
2022-10-28T20:34:06.792Z,15.90
2022-10-28T20:36:34.691Z,15.90
2022-10-28T20:39:09.537Z,15.80
2022-10-28T20:41:37.957Z,15.70
2022-10-28T20:44:05.371Z,15.60
2022-10-28T20:46:32.563Z,15.60
2022-10-28T20:49:00.783Z,15.60
2022-10-28T20:51:29.697Z,15.60
2022-10-28T20:53:56.848Z,15.50
2022-10-28T20:56:28.663Z,15.50
2022-10-28T20:58:56.109Z,15.50
2022-10-28T21:01:24.351Z,15.50
2022-10-28T21:03:54.762Z,15.40
2022-10-28T21:06:21.839Z,15.40
2022-10-28T21:08:48.648Z,15.30
2022-10-28T21:11:16.483Z,15.30
2022-10-28T21:13:44.018Z,15.20
2022-10-28T21:16:12.034Z,15.20
2022-10-28T21:18:39.891Z,15.20
2022-10-28T21:21:07.015Z,15.10
2022-10-28T21:23:34.124Z,15.00
2022-10-28T21:26:06.208Z,15.00
2022-10-28T21:28:33.854Z,15.00
2022-10-28T21:31:09.405Z,14.90
2022-10-28T21:33:37.745Z,14.80
2022-10-28T21:36:11.332Z,14.80
2022-10-28T21:38:38.341Z,14.80
2022-10-28T21:41:10.872Z,14.80
2022-10-28T21:43:40.285Z,14.90
2022-10-28T21:46:07.906Z,14.90
2022-10-28T21:48:35.874Z,14.90
2022-10-28T21:51:07.227Z,14.90
2022-10-28T21:53:38.015Z,14.80
2022-10-28T21:56:06.771Z,14.70
2022-10-28T21:58:36.402Z,14.70
2022-10-28T22:01:07.716Z,14.60
2022-10-28T22:03:34.798Z,14.70
2022-10-28T22:06:01.587Z,14.70
2022-10-28T22:08:28.503Z,14.70
2022-10-28T22:11:06.766Z,14.70
2022-10-28T22:13:34.417Z,14.70
2022-10-28T22:16:03.499Z,14.70
2022-10-28T22:18:32.128Z,14.70
2022-10-28T22:21:05.346Z,14.70
2022-10-28T22:23:32.322Z,14.60
2022-10-28T22:26:03.032Z,14.60
2022-10-28T22:28:29.810Z,14.60
2022-10-28T22:31:00.841Z,14.60
2022-10-28T22:33:27.664Z,14.50
2022-10-28T22:36:05.928Z,14.50
2022-10-28T22:38:32.932Z,14.50
2022-10-28T22:41:11.714Z,14.50
2022-10-28T22:43:39.462Z,14.40
2022-10-28T22:46:07.173Z,14.50
2022-10-28T22:48:37.436Z,14.50
2022-10-28T22:51:05.012Z,14.40
2022-10-28T22:53:32.231Z,14.40
2022-10-28T22:55:58.945Z,14.40
2022-10-28T22:58:26.607Z,14.40
2022-10-28T23:00:53.549Z,14.40
2022-10-28T23:03:20.481Z,14.40
2022-10-28T23:05:47.259Z,14.50
2022-10-28T23:08:16.772Z,14.60
2022-10-28T23:10:43.522Z,14.60
2022-10-28T23:13:12.689Z,14.50
2022-10-28T23:15:39.543Z,14.50
2022-10-28T23:18:06.266Z,14.40
2022-10-28T23:20:35.682Z,14.40
2022-10-28T23:23:02.428Z,14.40
2022-10-28T23:25:29.278Z,14.30
2022-10-28T23:27:56.315Z,14.30
2022-10-28T23:30:23.210Z,14.20
2022-10-28T23:32:49.959Z,14.10
2022-10-28T23:35:17.540Z,14.00
2022-10-28T23:37:44.265Z,14.00
2022-10-28T23:40:11.482Z,14.00
2022-10-28T23:42:38.160Z,14.00
2022-10-28T23:45:05.473Z,13.90
2022-10-28T23:47:32.135Z,13.80
2022-10-28T23:49:58.947Z,13.70
2022-10-28T23:52:25.744Z,13.60
2022-10-28T23:54:52.461Z,13.60
2022-10-28T23:57:19.141Z,13.60
2022-10-28T23:59:45.880Z,13.70
